Hovland, Minnesota
Current Conditions -  °F | °C
As of 4:21 AM on Saturday 22 Nov 2014 (Local Time) from KCKC Reporting Station
Clear Clear  
Wind Chill: 13°   Ceiling: Unl
Heat Index: 19°   Visibility: 4mi
Dew Point: 16°   Wind: 5mph
Humidity: 86%   Direction: 210°SSW
Pressure: 29.6"   Gusts: NA
Location:  47.84°N, 89.97°W
Report Text: KCKC 221021Z AUTO 21004KT 4SM CLR M07/M09 A2960 RMK AO2
Loading
Personal Weather Stations






























Interactive Weather Map New forecast layout! Learn more

10-Day Weather Forecast

Advertisements
Track Severe Weather on mobile